AirNav   Everest Fuels
 
 294 users online  

4M1 Carroll County Airport
Berryville, Arkansas, USA

GOING TO BERRYVILLE?


FAA INFORMATION EFFECTIVE 15 AUGUST 2019

Location

FAA Identifier: 4M1
Lat/Long: 36-22-52.8000N 093-37-28.4000W
36-22.880000N 093-37.473333W
36.3813333,-93.6245556
(estimated)
Elevation: 1205.5 ft. / 367.4 m (surveyed)
Variation: 02E (2010)
From city: 3 miles W of BERRYVILLE, AR
Time zone: UTC -5 (UTC -6 during Standard Time)
Zip code: 72616

Airport Operations

Airport use: Open to the public
Activation date: 05/1966
Control tower: no
ARTCC: MEMPHIS CENTER
FSS: JONESBORO FLIGHT SERVICE STATION
NOTAMs facility: JBR (NOTAM-D service available)
Attendance: MON-FRI 0800-1600
Wind indicator: lighted
Segmented circle: yes
Lights: ACTVT MIRL RY 07/25, TWY LGTS, REIL RYS 07 & 25 - CTAF.
Beacon: white-green (lighted land airport)
Operates sunset to sunrise.

Airport Communications

CTAF: 122.9
RAZORBACK APPROACH: 126.6
RAZORBACK DEPARTURE: 126.6
  • APCH/DEP SVC PRVDD BY MEMPHIS ARTCC ON FREQS 126.1/269.0 (FAYETTEVILLE RCAG) WHEN RAZORBACK APCH CTL CLSD.

Nearby radio navigation aids

VOR radial/distance  VOR name  Freq  Var
HROr277/20.2HARRISON VOR/DME112.5004E
RZCr067/25.3RAZORBACK VORTAC116.4004E

Airport Services

Fuel available: 100LL
FUEL AVBL 24 HR SELF SERVE WITH CREDIT CARD.
Parking: hangars and tiedowns
Airframe service: MAJOR
Powerplant service: MAJOR
Bottled oxygen: NONE
Bulk oxygen: NONE

Runway Information

Runway 7/25

Dimensions: 3554 x 75 ft. / 1083 x 23 m
Surface: asphalt, in excellent condition
Weight bearing capacity: 
Single wheel: 12.0
Runway edge lights: medium intensity
RUNWAY 7  RUNWAY 25
Latitude: 36-22.797025N36-22.964125N
Longitude: 093-37.819565W093-37.125405W
Elevation: 1166.6 ft.1204.9 ft.
Traffic pattern: leftleft
Runway heading: 071 magnetic, 073 true251 magnetic, 253 true
Markings: nonprecision, in fair conditionnonprecision, in fair condition
Visual slope indicator: 2-light PAPI on left (3.00 degrees glide path)2-light PAPI on left (4.00 degrees glide path)
Runway end identifier lights: yesyes
Touchdown point: yes, no lightsyes, no lights

Airport Ownership and Management from official FAA records

Ownership: Publicly-owned
Owner: CARROLL COUNTY
210 WEST CHURCH ST.
BERRYVILLE, AR 72616
Phone 870-423-2668
Manager: MICHAEL PFEIFER
518 COUNTY ROAD 308
BERRYVILLE, AR 72616
Phone 870-423-8393

Airport Operational Statistics

Aircraft based on the field: 19
Single engine airplanes: 13
Multi engine airplanes: 1
Ultralights: 5
    
Aircraft operations: avg 50/day *
55% transient general aviation
44% local general aviation
1% military
* for 12-month period ending 31 August 2015

Additional Remarks

NO LINE OF SIGHT BTN RY ENDS.
ULTRALIGHT ACTIVITY ON & INVOF ARPT.
DEER ON & INVOF ARPT.
FOR CD CTC MEMPHIS ARTCC AT 901-368-8453.

Instrument Procedures

NOTE: All procedures below are presented as PDF files. If you need a reader for these files, you should download the free Adobe Reader.

NOT FOR NAVIGATION. Please procure official charts for flight.
FAA instrument procedures published for use from 15 August 2019 at 0901Z to 12 September 2019 at 0900Z.

 
IAPs - Instrument Approach Procedures
RNAV (GPS) RWY 07   download (219KB)
RNAV (GPS) RWY 25   download (262KB)
NOTE: Special Take-Off Minimums/Departure Procedures apply   download (131KB)

Other nearby airports with instrument procedures:

H34 - Huntsville Municipal Airport (19 nm S)
KFWB - Branson West Municipal Airport - Emerson Field (22 nm NE)
KBBG - Branson Airport (22 nm NE)
94K - Cassville Municipal Airport (23 nm NW)
KROG - Rogers Executive Airport - Carter Field (23 nm W)
 
Loc | Ops | Rwys | IFR | FBO | Links
Com | Nav | Svcs | Stats | Notes

Branson Jet Center
AirBoss

 
Area around 4M1 (Carroll County Airport)
 
Road maps at: MapQuest Bing Google
 
Aerial photo
WARNING: Photo may not be current or correct
Aerial photo of 4M1 (Carroll County Airport)
Photo courtesy of the Arkansas Department of Aeronautics
Taken in the Spring of 2007

Do you have a better or more recent aerial photo of Carroll County Airport that you would like to share? If so, please send us your photo.

 
Sectional chart

 
Airport distance calculator
Flying to Carroll County Airport? Find the distance to fly.

From to 4M1

Sunrise and sunset
Times for 23-Aug-2019
 Local
(UTC-5)
 Zulu
(UTC)
Morning civil twilight06:1311:13
Sunrise06:4011:40
Sunset19:5400:54
Evening civil twilight20:2101:21

Current date and time
Zulu (UTC)  23-Aug-2019 08:53:29
Local (UTC-5)  23-Aug-2019 03:53:29
 
METAR
KFWB 
22nm NE 
230835Z AUTO 24007KT 3SM RA SCT008 SCT040 BKN055 20/20 A3001 RMK AO2 LTG DSNT NE P0008
KROG 
22nm W 
230758Z AUTO 14006KT 10SM RA FEW070 OVC085 20/19 A3001 RMK AO2 LTG DSNT S TSE17 SLP149 P0020 T02000194
KBBG 
22nm NE 
230815Z AUTO 22008KT 3SM RA FEW026 SCT030 BKN035 20/20 A3001 RMK AO2 LTG DSNT N AND NE P0004
KHRO 
24nm E 
230809Z AUTO 26008KT 7SM RA OVC075 21/19 A3001 RMK AO2 LTG DSNT SW AND W P0002 T02060194
KASG 
27nm SW 
230148Z 10006KT 10SM OVC047 24/24 A2998
KVBT 
29nm W 
230756Z AUTO 15006KT 8SM RA SCT032 OVC095 21/20 A3002 RMK AO2 LTG DSNT S TSE01B02E04B06E17 SLP157 T02060200 PNO $
KXNA 
33nm W 
230753Z AUTO 14007KT 9SM RA FEW035 SCT080 SCT100 21/19 A3001 RMK AO2 LTG DSNT S SLP146 P0012 T02060194
KFYV 
34nm SW 
230815Z AUTO 12006KT 5SM RA BR FEW055 BKN090 OVC120 21/21 A3001 RMK AO2 LTG DSNT SE AND S TSB0754E09 P0009 T02060206
KHFJ 
37nm NW 
230835Z AUTO 17006KT 10SM -RA BKN004 21/21 A2997 RMK AO2 LTG DSNT E AND SW P0001
KSLG 
42nm W 
230756Z AUTO 11005KT 9SM -RA FEW020 SCT075 OVC090 20/20 A3000 RMK AO2 LTG DSNT SE AND S TSE0657 SLP147 P0011 T02000200
TAF
KROG 
22nm W 
230520Z 2306/2406 17004KT P6SM VCTS SCT060CB TEMPO 2306/2310 1SM +TSRA BKN030CB FM231000 13006KT 5SM BR VCTS BKN045CB OVC110 TEMPO 2310/2314 1SM +TSRA BKN030CB FM231400 05005KT P6SM OVC025 PROB30 2315/2320 3SM -SHRA FM240000 09006KT P6SM BKN250
KBBG 
22nm NE 
230658Z 2307/2406 VRB05KT 6SM -RA BKN015 FM230900 VRB03KT 5SM BR OVC050 TEMPO 2309/2313 2SM TSRA BR OVC015CB FM231300 VRB03KT P6SM VCSH SCT025 OVC070 FM231500 VRB04KT P6SM VCSH OVC020 FM232000 11006KT P6SM VCSH SCT025 OVC050 PROB30 2320/2324 4SM TSRA BR BKN015CB BKN020
KHRO 
24nm E 
230524Z 2306/2406 VRB05KT P6SM VCSH SCT050 BKN100 TEMPO 2308/2312 5SM -TSRA BR BKN015CB FM231200 VRB05KT P6SM VCSH SCT025 OVC050 PROB30 2318/2324 4SM TSRA BR BKN025CB FM240000 10005KT P6SM VCSH SCT050 BKN100
NOTAMs
Click for the latest NOTAMs
NOTAMs are issued by the DoD/FAA and will open in a separate window not controlled by AirNav.

 

 
 

FBO, Fuel Providers, and Aircraft Ground Support

  
 Business Name 
 
 Contact 
 
 Services / Description 
 
Fuel Prices
 
Comments
  
Carroll County Airport 870-423-8393
870-423-2120
[web site]
[email]

Like us on facebook
Airport management, Aviation fuel, Aircraft parking (ramp or tiedown), Hangars, Hangar leasing / sales, Passenger terminal and lounge, Flight training, ...

More info about Carroll County Airport
Shell
100LL
SS $4.45 
 Updated 16-Aug-2019
 
   6 read write
SS=Self service
Update Fuel Prices
 

Would you like to see your business listed on this page?

 If your business provides an interesting product or service to pilots, flight crews, aircraft, or users of the Carroll County Airport, you should consider listing it here.  To start the listing process, click on the button below
 
Add a business
 

Other Pages about Carroll County Airport

co.carroll.ar.us
Carroll County Airport
 
Update a link
 
Copyright © AirNav, LLC. All rights reserved. Privacy Policy  Contact